Terminal Aerodrome Forecast
Issued by NWS

Home | Current Version | Previous Version | Text Only | Print | Product List | Glossary On
Versions: 1 2 3 4 5 6 7 8 9 10 11 12 13 14 15
385
FTUS43 KGRR 280520
TAFLAN
TAF
KLAN 280520Z 2806/2906 15008KT P6SM SCT080
     FM281500 20010G18KT P6SM VCSH BKN060
     FM281800 20011G20KT P6SM VCTS BKN050CB
     FM290000 18012KT P6SM VCSH BKN050=

USA.gov is the U.S. government's official web portal to all federal, state and local government web resources and services.